Aviation Digital Data Service (ADDS)

Output produced by TAFs form (1458 UTC 07 February 2016)
found at http://aviationweather.gov/adds/tafs/
 
KEGE 071138Z 0712/0812 VRB03KT P6SM FEW130 SCT250 
     FM072000 23010KT P6SM SCT250 
     FM080100 09002KT P6SM FEW250 AMD LTD TO CLD VIS AND WIND TIL 071400